Terminal Aerodrome Forecast
Issued by NWS Sioux Falls, SD

Home | Current Version | Previous Version | Text Only | Print | Product List | Glossary Off
Versions: 1 2 3 4 5 6 7 8 9 10 11 12 13 14 15 16 17

000
FTUS43 KFSD 312321
TAFFSD
TAF
KFSD 312321Z 0100/0124 12013KT P6SM FEW040 BKN100
     FM010600 14010KT P6SM OVC050
     FM011700 16013G18KT P6SM OVC090=

USA.gov is the U.S. government's official web portal to all federal, state and local government web resources and services.